Latest Weather Observations for Mount Hotham

IDV60801

Issued at 7:02 am EST Thursday 20 June 2019 (issued every 10 minutes, with the page automatically refreshed every 10 minutes)

About weather observations | Map of weather stations | Latest weather observations for VIC | Other Formats
Station Details ID: 083085 Name: MOUNT HOTHAM Lat: -36.98 Lon: 147.13 Height: 1849.0 m
Data from the previous 72 hours. | See also: Recent months at Mount Hotham
Date/Time
EST
Temp
°C
App
Temp
°C
Dew
Point
°C
Rel
Hum
%
Delta-T
°C
Wind Press
QNH
hPa
Press
MSL
hPa
Rain since
9am
mm
Dir  Spd
km/h
Gust
km/h
Spd
kts
Gust
kts
20/07:00am - - - - - E 13 15 7 8 - - 0.2
20/06:30am - - - - - E 13 20 7 11 - - 0.2
20/06:00am - - - - - E 19 22 10 12 - - 0.2
20/05:30am - - - - - E 19 22 10 12 - - 0.2
20/05:00am - - - - - E 17 20 9 11 - - 0.2
20/04:30am - - - - - E 9 17 5 9 - - 0.2
20/04:00am - - - - - ESE 15 20 8 11 - - 0.2
20/03:30am - - - - - ESE 13 17 7 9 - - 0.2
20/03:00am - - - - - SE 11 13 6 7 - - 0.2
20/02:30am - - - - - ESE 11 17 6 9 - - 0.2
20/02:00am - - - - - ESE 9 13 5 7 - - 0.2
20/01:30am - - - - - ESE 9 15 5 8 - - 0.2
20/01:00am - - - - - ESE 11 15 6 8 - - 0.2
20/12:30am - - - - - SE 15 19 8 10 - - 0.2
20/12:00am - - - - - SSE 15 19 8 10 - - 0.2
 
Date/Time
EST
Temp
°C
App
Temp
°C
Dew
Point
°C
Rel
Hum
%
Delta-T
°C
Wind Press
QNH
hPa
Press
MSL
hPa
Rain since
9am
mm
Dir  Spd
km/h
Gust
km/h
Spd
kts
Gust
kts
19/11:30pm - - - - - SSE 15 19 8 10 - - 0.2
19/11:00pm - - - - - SSE 13 17 7 9 - - 0.2
19/10:30pm - - - - - SSE 20 30 11 16 - - 0.2
19/10:00pm - - - - - SSE 20 28 11 15 - - 0.2
19/09:30pm - - - - - SSE 20 26 11 14 - - 0.2
19/09:00pm - - - - - SSE 19 24 10 13 - - 0.2
19/08:30pm - - - - - SSE 22 28 12 15 - - 0.2
19/08:00pm - - - - - SSE 22 32 12 17 - - 0.2
19/07:30pm - - - - - SSE 24 30 13 16 - - 0.2
19/07:00pm - - - - - SSE 20 26 11 14 - - 0.2
19/06:30pm - - - - - S 17 22 9 12 - - 0.2
19/06:00pm - - - - - SSE 17 20 9 11 - - 0.2
19/05:30pm - - - - - S 7 9 4 5 - - 0.2
19/05:00pm - - - - - S 9 13 5 7 - - 0.2
19/04:30pm - - - - - S 9 17 5 9 - - 0.2
19/04:00pm - - - - - S 6 9 3 5 - - 0.2
19/03:30pm - - - - - SSE 7 11 4 6 - - 0.2
19/03:00pm - - - - - CALM 0 4 0 2 - - 0.2
19/02:30pm - - - - - SSW 4 7 2 4 - - 0.2
19/02:00pm - - - - - SSW 6 9 3 5 - - 0.2
19/01:30pm - - - - - SSW 7 11 4 6 - - 0.2
19/01:00pm - - - - - S 13 17 7 9 - - 0.2
19/12:30pm - - - - - SSE 15 17 8 9 - - 0.2
19/12:00pm - - - - - S 9 13 5 7 - - 0.2
19/11:30am - - - - - SSE 19 22 10 12 - - 0.2
19/11:00am - - - - - SSE 20 26 11 14 - - 0.2
19/10:30am - - - - - SSE 24 28 13 15 - - 0.2
19/10:00am - - - - - SSE 26 32 14 17 - - 0.2
19/09:30am - - - - - SSE 24 30 13 16 - - 0.0
19/09:00am - - - - - S 20 24 11 13 - - 0.2
19/08:30am - - - - - S 26 33 14 18 - - 0.2
19/08:00am - - - - - S 26 33 14 18 - - 0.2
19/07:30am - - - - - S 30 37 16 20 - - 0.2
19/07:00am - - - - - S 35 41 19 22 - - 0.2
19/06:30am - - - - - S 33 44 18 24 - - 0.2
19/06:00am - - - - - S 32 37 17 20 - - 0.2
19/05:30am - - - - - S 26 32 14 17 - - 0.2
19/05:00am - - - - - S 32 37 17 20 - - 0.2
19/04:30am - - - - - S 33 44 18 24 - - 0.2
19/04:00am - - - - - S 28 35 15 19 - - 0.2
19/03:30am - - - - - S 30 35 16 19 - - 0.2
19/03:00am - - - - - S 28 35 15 19 - - 0.2
19/02:30am - - - - - S 22 24 12 13 - - 0.2
19/02:00am - - - - - SSW 22 28 12 15 - - 0.2
19/01:30am - - - - - SW 13 17 7 9 - - 0.2
19/01:00am - - - - - SSW 17 24 9 13 - - 0.2
19/12:30am - - - - - SSW 19 24 10 13 - - 0.2
19/12:00am - - - - - SSW 13 19 7 10 - - 0.2
 
Date/Time
EST
Temp
°C
App
Temp
°C
Dew
Point
°C
Rel
Hum
%
Delta-T
°C
Wind Press
QNH
hPa
Press
MSL
hPa
Rain since
9am
mm
Dir  Spd
km/h
Gust
km/h
Spd
kts
Gust
kts
18/11:30pm - - - - - SSW 19 22 10 12 - - 0.2
18/11:00pm - - - - - SW 19 30 10 16 - - 0.2
18/10:30pm - - - - - SSW 15 24 8 13 - - 0.2
18/10:00pm - - - - - S 17 20 9 11 - - 0.2
18/09:30pm - - - - - S 22 28 12 15 - - 0.2
18/09:00pm - - - - - SSW 20 30 11 16 - - 0.2
18/08:30pm - - - - - SSW 22 32 12 17 - - 0.2
18/08:00pm - - - - - SW 24 32 13 17 - - 0.2
18/07:30pm - - - - - WSW 17 30 9 16 - - 0.2
18/07:00pm - - - - - WNW 20 33 11 18 - - 0.2
18/06:30pm - - - - - NW 24 43 13 23 - - 0.2
18/06:00pm - - - - - WNW 32 46 17 25 - - 0.2
18/05:31pm - - - - - NW 37 56 20 30 - - 0.2
18/05:30pm - - - - - NW 39 56 21 30 - - 0.2
18/05:02pm - - - - - NW 39 57 21 31 - - 0.2
18/05:00pm - - - - - NW 39 50 21 27 - - 0.2
18/04:30pm - - - - - NNW 33 50 18 27 - - 0.2
18/04:20pm - - - - - NNW 35 54 19 29 - - 0.2
18/04:00pm - - - - - NW 37 52 20 28 - - 0.2
18/03:30pm - - - - - NNW 44 65 24 35 - - 0.2
18/03:00pm - - - - - NNW 48 70 26 38 - - 0.2
18/02:30pm - - - - - NNW 50 72 27 39 - - 0.2
18/02:00pm - - - - - NNW 52 72 28 39 - - 0.2
18/01:33pm - - - - - NNW 48 72 26 39 - - 0.2
18/01:30pm - - - - - NNW 50 65 27 35 - - 0.2
18/01:00pm - - - - - NNW 50 70 27 38 - - 0.2
18/12:30pm - - - - - NNW 50 69 27 37 - - 0.2
18/12:00pm - - - - - NNW 54 72 29 39 - - 0.0
18/11:30am - - - - - NNW 46 67 25 36 - - 0.0
18/11:09am - - - - - NNW 46 65 25 35 - - 0.0
18/11:00am - - - - - NNW 46 61 25 33 - - 0.0
18/10:36am - - - - - NNW 48 70 26 38 - - 0.0
18/10:30am - - - - - NNW 48 65 26 35 - - 0.0
18/10:00am - - - - - NNW 50 70 27 38 - - 0.0
18/09:33am - - - - - NNW 46 67 25 36 - - 0.0
18/09:30am - - - - - NNW 46 63 25 34 - - 0.0
18/09:00am - - - - - NNW 43 67 23 36 - - 0.0
18/08:34am - - - - - NNW 43 61 23 33 - - 0.0
18/08:30am - - - - - NNW 41 57 22 31 - - 0.0
18/08:23am - - - - - NNW 39 57 21 31 - - 0.0
18/08:00am - - - - - NNW 43 57 23 31 - - 0.0
18/07:32am - - - - - NNW 39 57 21 31 - - 0.0
18/07:30am - - - - - NNW 39 52 21 28 - - 0.0
18/07:11am - - - - - NNW 39 57 21 31 - - 0.0
18/07:00am - - - - - NNW 41 52 22 28 - - 0.0
18/06:32am - - - - - NNW 37 56 20 30 - - 0.0
18/06:30am - - - - - NNW 37 52 20 28 - - 0.0
18/06:00am - - - - - NNW 37 46 20 25 - - 0.0
18/05:30am - - - - - N 37 46 20 25 - - 0.0
18/05:00am - - - - - N 37 44 20 24 - - 0.0
18/04:30am - - - - - NNW 39 50 21 27 - - 0.0
18/04:00am - - - - - N 39 50 21 27 - - 0.0
18/03:30am - - - - - NNW 39 48 21 26 - - 0.0
18/03:00am - - - - - NNW 39 48 21 26 - - 0.0
18/02:30am - - - - - N 43 56 23 30 - - 0.0
18/02:00am - - - - - NNW 43 54 23 29 - - 0.0
18/01:30am - - - - - N 43 52 23 28 - - 0.0
18/01:00am - - - - - NNW 44 54 24 29 - - 0.0
18/12:30am - - - - - NNW 43 56 23 30 - - 0.0
18/12:00am - - - - - NNW 39 52 21 28 - - 0.0
 
Date/Time
EST
Temp
°C
App
Temp
°C
Dew
Point
°C
Rel
Hum
%
Delta-T
°C
Wind Press
QNH
hPa
Press
MSL
hPa
Rain since
9am
mm
Dir  Spd
km/h
Gust
km/h
Spd
kts
Gust
kts
17/11:30pm - - - - - NNW 37 44 20 24 - - 0.0
17/11:00pm - - - - - NNW 35 43 19 23 - - 0.0
17/10:30pm - - - - - NNW 35 41 19 22 - - 0.0
17/10:00pm - - - - - N 30 39 16 21 - - 0.0
17/09:30pm - - - - - NNW 28 35 15 19 - - 0.0
17/09:00pm - - - - - NNW 24 32 13 17 - - 0.0
17/08:30pm - - - - - NNW 22 26 12 14 - - 0.0
17/08:00pm - - - - - NNW 20 24 11 13 - - 0.0
17/07:30pm - - - - - N 17 22 9 12 - - 0.0
17/07:00pm - - - - - NNW 19 26 10 14 - - 0.0
17/06:30pm - - - - - N 19 22 10 12 - - 0.0
17/06:00pm - - - - - NNW 17 24 9 13 - - 0.0
17/05:30pm - - - - - NW 19 24 10 13 - - 0.0
17/05:00pm - - - - - NNW 13 20 7 11 - - 0.0
17/04:30pm - - - - - NNW 11 17 6 9 - - 0.0
17/04:00pm - - - - - NNW 11 19 6 10 - - 0.0
17/03:30pm - - - - - NW 13 17 7 9 - - 0.0
17/03:00pm - - - - - NNW 15 20 8 11 - - 0.0
17/02:30pm - - - - - NW 13 17 7 9 - - 0.0
17/02:00pm - - - - - NNW 11 22 6 12 - - 0.0
17/01:30pm - - - - - NNW 13 17 7 9 - - 0.0
17/01:00pm - - - - - N 9 15 5 8 - - 0.0
17/12:30pm - - - - - WNW 6 9 3 5 - - 0.0
17/12:00pm - - - - - ENE 9 13 5 7 - - 0.0
17/11:30am - - - - - ENE 7 11 4 6 - - 0.0
17/11:00am - - - - - ENE 7 11 4 6 - - 0.0
17/10:30am - - - - - ESE 7 13 4 7 - - 0.0
17/10:00am - - - - - ESE 9 13 5 7 - - 0.0
17/09:30am - - - - - ESE 7 11 4 6 - - 0.0
17/09:00am - - - - - ESE 15 19 8 10 - - 0.0
17/08:30am - - - - - SE 20 24 11 13 - - 0.0
17/08:00am - - - - - SE 24 28 13 15 - - 0.0
17/07:30am - - - - - SE 28 32 15 17 - - 0.0

Other formats

Comma delimited format used in spreadsheet applications
http://www.bom.gov.au/fwo/IDV60801/IDV60801.94906.axf

JavaScript Object Notation format (JSON) in row-major order
http://www.bom.gov.au/fwo/IDV60801/IDV60801.94906.json

Data quality

Most of these data are generated automatically and are frequently updated. Quality checks on data are not normally performed. It is possible for incorrect values to appear. Refer to information at About Latest Weather Observations and please check the disclaimer before using these data.